createdAt,value
2023-05-13T09:56:17.267Z,2.80
2023-05-13T09:57:17.176Z,2.70
2023-05-13T09:58:17.202Z,3.20
2023-05-13T09:59:17.238Z,2.70
2023-05-13T10:00:28.785Z,3.20
2023-05-13T10:01:18.219Z,3.50
2023-05-13T10:02:17.134Z,3.10
2023-05-13T10:03:17.099Z,3.40
2023-05-13T10:04:17.217Z,3.20
2023-05-13T10:05:17.277Z,3.10
2023-05-13T10:06:17.107Z,3.50
2023-05-13T10:07:17.083Z,3.10
2023-05-13T10:08:17.092Z,3.30
2023-05-13T10:09:17.040Z,3.40
2023-05-13T10:10:17.063Z,3.20
2023-05-13T10:11:17.082Z,3.10
2023-05-13T10:12:17.024Z,3.20
2023-05-13T10:13:16.991Z,3.00
2023-05-13T10:14:17.140Z,3.40
2023-05-13T10:15:16.998Z,3.40
2023-05-13T10:16:17.076Z,3.60
2023-05-13T10:17:16.962Z,3.40
2023-05-13T10:18:17.044Z,3.40
2023-05-13T10:19:17.342Z,3.40
2023-05-13T10:20:16.960Z,3.30
2023-05-13T10:21:16.932Z,3.30
2023-05-13T10:22:16.909Z,3.10
2023-05-13T10:23:16.931Z,3.30
2023-05-13T10:24:16.872Z,3.10
2023-05-13T10:25:16.855Z,3.40
2023-05-13T10:26:16.878Z,3.50
2023-05-13T10:27:16.836Z,3.50
2023-05-13T10:28:16.829Z,3.40
2023-05-13T10:29:16.826Z,3.20
2023-05-13T10:30:16.832Z,3.60
2023-05-13T10:31:16.841Z,3.60
2023-05-13T10:32:16.818Z,3.50
2023-05-13T10:33:16.819Z,3.40
2023-05-13T10:34:16.797Z,3.60
2023-05-13T10:35:16.777Z,3.40
2023-05-13T10:36:16.752Z,3.50
2023-05-13T10:37:16.787Z,3.50
2023-05-13T10:38:16.735Z,3.30
2023-05-13T10:39:16.755Z,3.70
2023-05-13T10:40:16.742Z,3.50
2023-05-13T10:41:16.708Z,3.90
2023-05-13T10:42:16.686Z,3.80
2023-05-13T10:43:16.669Z,3.50
2023-05-13T10:44:16.656Z,3.70
2023-05-13T10:45:16.698Z,3.50
2023-05-13T10:46:16.661Z,3.70
2023-05-13T10:47:16.683Z,3.60
2023-05-13T10:48:16.762Z,3.40
2023-05-13T10:49:16.690Z,3.60
2023-05-13T10:50:16.609Z,3.50
2023-05-13T10:51:16.613Z,3.60
2023-05-13T10:52:16.554Z,3.90
2023-05-13T10:53:16.577Z,3.90
2023-05-13T10:54:16.536Z,3.70
2023-05-13T10:55:16.516Z,3.60
2023-05-13T10:56:16.511Z,3.40
2023-05-13T10:57:18.301Z,3.70
2023-05-13T10:58:16.509Z,3.90
2023-05-13T10:59:16.516Z,3.70
2023-05-13T11:00:16.658Z,4.10
2023-05-13T11:01:16.522Z,3.90
2023-05-13T11:02:16.518Z,3.90
2023-05-13T11:03:16.695Z,4.10
2023-05-13T11:04:16.441Z,3.70
2023-05-13T11:05:16.436Z,4.60
2023-05-13T11:06:16.400Z,3.90
2023-05-13T11:07:16.414Z,3.70
2023-05-13T11:08:16.394Z,3.80
2023-05-13T11:09:16.368Z,3.50
2023-05-13T11:10:16.354Z,3.50
2023-05-13T11:11:16.338Z,3.50
2023-05-13T11:12:16.329Z,3.60
2023-05-13T11:13:16.301Z,3.70
2023-05-13T11:14:16.317Z,3.90
2023-05-13T11:15:16.316Z,3.50
2023-05-13T11:16:16.394Z,3.90
2023-05-13T11:17:16.291Z,3.50
2023-05-13T11:18:16.263Z,3.60
2023-05-13T11:19:16.251Z,3.80
2023-05-13T11:20:16.247Z,3.70
2023-05-13T11:21:16.248Z,3.70
2023-05-13T11:22:16.268Z,3.40
2023-05-13T11:23:16.200Z,3.40
2023-05-13T11:24:16.209Z,3.50
2023-05-13T11:25:16.195Z,3.70
2023-05-13T11:26:16.180Z,3.70
2023-05-13T11:27:16.196Z,3.50
2023-05-13T11:28:16.122Z,3.60
2023-05-13T11:29:16.161Z,3.60
2023-05-13T11:30:16.105Z,3.50
2023-05-13T11:31:16.230Z,3.60
2023-05-13T11:32:16.142Z,3.30
2023-05-13T11:33:16.101Z,3.40
2023-05-13T11:34:16.105Z,3.00
2023-05-13T11:35:16.093Z,3.70
2023-05-13T11:36:16.031Z,3.50
2023-05-13T11:37:16.059Z,3.50
2023-05-13T11:38:16.008Z,3.30
2023-05-13T11:39:16.006Z,3.50
2023-05-13T11:40:15.987Z,3.50
2023-05-13T11:41:15.993Z,3.40
2023-05-13T11:42:16.037Z,3.10
2023-05-13T11:43:15.992Z,3.60
2023-05-13T11:44:15.960Z,3.40
2023-05-13T11:45:15.968Z,3.40
2023-05-13T11:46:15.971Z,3.30
2023-05-13T11:47:15.946Z,3.80
2023-05-13T11:48:15.919Z,3.60
2023-05-13T11:49:15.891Z,3.30
2023-05-13T11:50:15.908Z,3.10
2023-05-13T11:51:15.875Z,3.20
2023-05-13T11:52:15.856Z,3.60
2023-05-13T11:53:22.993Z,3.30
2023-05-13T11:54:15.835Z,3.10
2023-05-13T11:55:15.878Z,3.10
2023-05-13T11:56:15.829Z,3.10
2023-05-13T11:57:15.830Z,3.40
2023-05-13T11:58:15.787Z,3.40
2023-05-13T11:59:15.827Z,3.30
2023-05-13T12:00:15.776Z,2.90
2023-05-13T12:01:15.758Z,3.20
2023-05-13T12:02:15.762Z,3.10
2023-05-13T12:03:16.010Z,3.40
2023-05-13T12:04:15.742Z,3.20
2023-05-13T12:05:15.763Z,3.10
2023-05-13T12:06:15.715Z,3.20
2023-05-13T12:07:15.704Z,3.30
2023-05-13T12:08:15.690Z,3.10
2023-05-13T12:09:15.893Z,3.20
2023-05-13T12:10:15.674Z,3.10
2023-05-13T12:11:15.668Z,3.10
2023-05-13T12:12:15.620Z,2.90
2023-05-13T12:13:15.683Z,2.80
2023-05-13T12:14:15.600Z,2.60
2023-05-13T12:15:15.633Z,2.70
2023-05-13T12:16:15.662Z,2.80
2023-05-13T12:17:15.584Z,2.70
2023-05-13T12:18:15.704Z,2.90
2023-05-13T12:19:15.623Z,2.60
2023-05-13T12:20:15.522Z,2.60
2023-05-13T12:21:15.559Z,2.70
2023-05-13T12:22:15.593Z,2.80
2023-05-13T12:23:15.529Z,2.40
2023-05-13T12:24:15.512Z,2.50
2023-05-13T12:25:15.510Z,2.70
2023-05-13T12:26:15.486Z,2.60
2023-05-13T12:27:15.533Z,2.60
2023-05-13T12:28:15.437Z,2.70
2023-05-13T12:29:15.476Z,2.60
2023-05-13T12:30:15.419Z,2.60
2023-05-13T12:31:15.506Z,2.80
2023-05-13T12:32:15.391Z,3.00
2023-05-13T12:33:15.395Z,3.00
2023-05-13T12:34:15.372Z,2.50
2023-05-13T12:35:15.402Z,2.60
2023-05-13T12:36:15.405Z,2.60
2023-05-13T12:37:15.376Z,2.40
2023-05-13T12:38:15.351Z,2.60
2023-05-13T12:39:15.356Z,2.40
2023-05-13T12:40:15.374Z,2.70
2023-05-13T12:41:15.325Z,2.50
2023-05-13T12:42:15.281Z,2.30
2023-05-13T12:43:15.350Z,2.90
2023-05-13T12:44:15.280Z,2.70
2023-05-13T12:45:15.300Z,2.90
2023-05-13T12:46:15.392Z,2.50
2023-05-13T12:47:15.268Z,2.70
2023-05-13T12:48:15.210Z,2.60
2023-05-13T12:49:15.229Z,2.50
2023-05-13T12:50:15.179Z,2.30
2023-05-13T12:51:15.208Z,2.60
2023-05-13T12:52:15.235Z,2.40
2023-05-13T12:53:15.157Z,2.50
2023-05-13T12:54:15.155Z,2.60
2023-05-13T12:55:15.132Z,2.50
2023-05-13T12:56:15.128Z,2.40
2023-05-13T12:57:15.110Z,2.80
2023-05-13T12:58:15.114Z,2.60
2023-05-13T12:59:15.092Z,2.70
2023-05-13T13:00:15.073Z,2.50
2023-05-13T13:01:15.239Z,2.70
2023-05-13T13:02:15.048Z,2.70
2023-05-13T13:03:15.128Z,2.70
2023-05-13T13:04:15.070Z,2.60
2023-05-13T13:05:15.032Z,2.70
2023-05-13T13:06:15.061Z,2.70
2023-05-13T13:07:15.032Z,2.70
2023-05-13T13:08:14.973Z,2.70
2023-05-13T13:09:14.971Z,2.60
2023-05-13T13:10:14.963Z,2.70
2023-05-13T13:11:15.096Z,2.70
2023-05-13T13:12:14.989Z,2.80
2023-05-13T13:13:14.926Z,2.50
2023-05-13T13:14:14.912Z,2.60
2023-05-13T13:15:14.930Z,3.20
2023-05-13T13:16:14.938Z,2.60
2023-05-13T13:17:14.909Z,2.70
2023-05-13T13:18:14.884Z,2.70
2023-05-13T13:19:14.929Z,2.60
2023-05-13T13:20:14.888Z,2.50
2023-05-13T13:21:14.921Z,2.50
2023-05-13T13:22:14.813Z,2.50
2023-05-13T13:23:14.817Z,2.70
2023-05-13T13:24:14.820Z,2.50
2023-05-13T13:25:14.822Z,2.60
2023-05-13T13:26:14.830Z,2.70
2023-05-13T13:27:14.767Z,2.60
2023-05-13T13:28:14.753Z,2.60
2023-05-13T13:29:14.785Z,2.50
2023-05-13T13:30:14.733Z,2.60
2023-05-13T13:31:14.763Z,2.60
2023-05-13T13:32:14.769Z,2.80
2023-05-13T13:33:14.800Z,2.80
2023-05-13T13:34:14.716Z,2.60
2023-05-13T13:35:14.685Z,2.80
2023-05-13T13:36:16.354Z,2.70
2023-05-13T13:37:14.657Z,2.60
2023-05-13T13:38:14.652Z,3.00
2023-05-13T13:39:14.664Z,2.80
2023-05-13T13:40:14.630Z,2.70
2023-05-13T13:41:14.667Z,3.00
2023-05-13T13:42:14.596Z,2.80
2023-05-13T13:43:14.609Z,2.80
2023-05-13T13:44:14.631Z,3.00
2023-05-13T13:45:14.566Z,2.70
2023-05-13T13:46:14.635Z,2.70
2023-05-13T13:47:14.535Z,2.80
2023-05-13T13:48:14.572Z,3.10
2023-05-13T13:49:23.269Z,2.50
2023-05-13T13:50:15.485Z,2.80
2023-05-13T13:51:14.504Z,3.00
2023-05-13T13:52:14.494Z,2.80
2023-05-13T13:53:14.476Z,2.90
2023-05-13T13:54:14.456Z,2.80
2023-05-13T13:55:14.480Z,2.70
2023-05-13T13:56:14.444Z,2.60
2023-05-13T13:57:15.513Z,2.40
2023-05-13T13:58:14.481Z,2.60
2023-05-13T13:59:14.400Z,2.90
2023-05-13T14:00:14.394Z,2.80
2023-05-13T14:01:14.406Z,2.50
2023-05-13T14:02:14.386Z,2.70
2023-05-13T14:03:14.447Z,2.50
2023-05-13T14:04:14.340Z,2.40
2023-05-13T14:05:14.336Z,2.30
2023-05-13T14:06:14.331Z,2.30
2023-05-13T14:07:15.182Z,2.30
2023-05-13T14:08:14.399Z,2.20
2023-05-13T14:09:14.308Z,2.60
2023-05-13T14:10:14.270Z,2.70
2023-05-13T14:11:14.265Z,2.60
2023-05-13T14:12:14.279Z,2.50
2023-05-13T14:13:14.254Z,2.40
2023-05-13T14:14:14.246Z,2.30
2023-05-13T14:15:14.222Z,2.10
2023-05-13T14:16:14.269Z,2.20
2023-05-13T14:17:14.497Z,2.60
2023-05-13T14:18:14.244Z,2.50
2023-05-13T14:19:14.238Z,2.40
2023-05-13T14:20:14.145Z,2.60
2023-05-13T14:21:14.142Z,2.70
2023-05-13T14:22:14.163Z,2.40
2023-05-13T14:23:14.127Z,2.70
2023-05-13T14:24:14.098Z,2.70
2023-05-13T14:25:14.131Z,2.80
2023-05-13T14:26:14.075Z,2.80
2023-05-13T14:27:14.110Z,2.80
2023-05-13T14:28:14.081Z,2.80
2023-05-13T14:29:14.078Z,2.70
2023-05-13T14:30:14.088Z,2.70
2023-05-13T14:31:14.078Z,2.80
2023-05-13T14:32:14.012Z,2.80
2023-05-13T14:33:14.114Z,2.40
2023-05-13T14:34:14.054Z,2.60
2023-05-13T14:35:14.014Z,2.80
2023-05-13T14:36:13.997Z,2.80
2023-05-13T14:37:13.964Z,2.50
2023-05-13T14:38:14.008Z,2.50
2023-05-13T14:39:13.958Z,2.50
2023-05-13T14:40:13.917Z,2.60
2023-05-13T14:41:13.918Z,2.80
2023-05-13T14:42:13.928Z,2.90
2023-05-13T14:43:13.897Z,2.90
2023-05-13T14:44:13.871Z,2.90
2023-05-13T14:45:16.833Z,2.80
2023-05-13T14:46:13.963Z,3.20
2023-05-13T14:47:13.932Z,3.00
2023-05-13T14:48:13.884Z,3.00
2023-05-13T14:49:13.855Z,2.90
2023-05-13T14:50:13.857Z,3.30
2023-05-13T14:51:13.789Z,2.80
2023-05-13T14:52:13.812Z,3.00
2023-05-13T14:53:13.789Z,2.70
2023-05-13T14:54:13.765Z,3.00
2023-05-13T14:55:13.766Z,3.00
2023-05-13T14:56:13.757Z,2.70
2023-05-13T14:57:13.738Z,2.80
2023-05-13T14:58:13.782Z,3.10
2023-05-13T14:59:13.704Z,2.60
2023-05-13T15:00:13.695Z,2.50
2023-05-13T15:01:13.765Z,2.40
2023-05-13T15:02:13.787Z,2.60
2023-05-13T15:03:13.756Z,2.80
2023-05-13T15:04:14.576Z,2.90
2023-05-13T15:05:13.655Z,2.90
2023-05-13T15:06:13.676Z,2.30
2023-05-13T15:07:13.622Z,2.40
2023-05-13T15:08:13.606Z,2.60
2023-05-13T15:09:14.494Z,2.40
2023-05-13T15:10:13.595Z,3.00
2023-05-13T15:11:13.592Z,2.80
2023-05-13T15:12:13.580Z,2.60
2023-05-13T15:13:13.552Z,2.60
2023-05-13T15:14:13.583Z,2.90
2023-05-13T15:15:13.535Z,2.80
2023-05-13T15:16:13.533Z,2.90
2023-05-13T15:17:15.322Z,2.90
2023-05-13T15:18:13.503Z,2.70
2023-05-13T15:19:13.548Z,2.60
2023-05-13T15:20:13.505Z,2.50
2023-05-13T15:21:13.504Z,2.60
2023-05-13T15:22:13.466Z,2.60
2023-05-13T15:23:13.425Z,2.60
2023-05-13T15:24:13.418Z,2.50
2023-05-13T15:25:13.447Z,2.70
2023-05-13T15:26:13.426Z,2.50
2023-05-13T15:27:13.392Z,2.50
2023-05-13T15:28:13.414Z,2.70
2023-05-13T15:29:13.374Z,2.90
2023-05-13T15:30:13.494Z,2.70
2023-05-13T15:31:13.351Z,2.70
2023-05-13T15:32:13.332Z,3.00
2023-05-13T15:33:13.319Z,3.00
2023-05-13T15:34:13.337Z,3.00
2023-05-13T15:35:13.301Z,2.70
2023-05-13T15:36:13.295Z,2.90
2023-05-13T15:37:13.261Z,2.90
2023-05-13T15:38:13.289Z,2.80
2023-05-13T15:39:13.267Z,2.70
2023-05-13T15:40:13.234Z,3.00
2023-05-13T15:41:13.244Z,2.90
2023-05-13T15:42:13.232Z,2.90
2023-05-13T15:43:13.182Z,2.70
2023-05-13T15:44:13.214Z,2.80
2023-05-13T15:45:13.210Z,2.70
2023-05-13T15:46:13.236Z,2.90
2023-05-13T15:47:13.286Z,3.10
2023-05-13T15:48:13.160Z,2.90
2023-05-13T15:49:13.118Z,3.10
2023-05-13T15:50:13.179Z,3.60
2023-05-13T15:51:13.120Z,3.70
2023-05-13T15:52:13.094Z,3.30
2023-05-13T15:53:13.099Z,3.10
2023-05-13T15:54:13.103Z,4.20
2023-05-13T15:55:13.072Z,4.10
2023-05-13T15:56:13.077Z,5.10
2023-05-13T15:57:13.057Z,4.60
2023-05-13T15:58:13.049Z,4.20
2023-05-13T15:59:13.240Z,4.60
2023-05-13T16:00:13.032Z,3.50
2023-05-13T16:01:12.988Z,3.30
2023-05-13T16:02:13.057Z,3.20
2023-05-13T16:03:13.065Z,3.00
2023-05-13T16:04:13.124Z,3.00
2023-05-13T16:05:12.964Z,3.10
2023-05-13T16:06:13.155Z,3.20
2023-05-13T16:07:12.912Z,4.60
2023-05-13T16:08:12.938Z,3.00
2023-05-13T16:09:12.912Z,3.00
2023-05-13T16:10:12.930Z,3.00
2023-05-13T16:11:12.951Z,2.90
2023-05-13T16:12:12.892Z,2.60
2023-05-13T16:13:12.892Z,2.70
2023-05-13T16:14:12.907Z,2.60
2023-05-13T16:15:12.844Z,2.70
2023-05-13T16:16:12.929Z,2.60
2023-05-13T16:17:12.787Z,2.90
2023-05-13T16:18:12.942Z,3.10
2023-05-13T16:19:13.030Z,2.90
2023-05-13T16:20:12.791Z,2.70
2023-05-13T16:21:12.771Z,3.10
2023-05-13T16:22:12.765Z,3.60
2023-05-13T16:23:12.720Z,3.30
2023-05-13T16:24:12.800Z,3.70
2023-05-13T16:25:12.702Z,3.20
2023-05-13T16:26:12.703Z,3.10
2023-05-13T16:27:12.679Z,3.00
2023-05-13T16:28:12.666Z,3.20
2023-05-13T16:29:12.693Z,3.20
2023-05-13T16:30:12.690Z,3.30
2023-05-13T16:31:12.701Z,3.90
2023-05-13T16:32:12.648Z,4.80
2023-05-13T16:33:12.642Z,4.70
2023-05-13T16:34:12.622Z,5.10
2023-05-13T16:35:12.638Z,5.60
2023-05-13T16:36:12.607Z,4.30
2023-05-13T16:37:12.576Z,3.30
2023-05-13T16:38:12.579Z,3.40
2023-05-13T16:39:12.598Z,2.80
2023-05-13T16:40:12.548Z,2.60
2023-05-13T16:41:12.616Z,2.70
2023-05-13T16:42:12.559Z,2.70
2023-05-13T16:43:12.489Z,2.80
2023-05-13T16:44:12.508Z,2.70
2023-05-13T16:45:12.471Z,2.90
2023-05-13T16:46:12.726Z,2.50
2023-05-13T16:47:12.470Z,2.70
2023-05-13T16:48:12.586Z,2.50
2023-05-13T16:49:12.464Z,2.70
2023-05-13T16:50:12.412Z,2.70
2023-05-13T16:51:14.087Z,2.80
2023-05-13T16:52:12.436Z,2.40
2023-05-13T16:53:12.407Z,2.80
2023-05-13T16:54:12.399Z,2.60
2023-05-13T16:55:12.356Z,2.70
2023-05-13T16:56:12.389Z,2.60
2023-05-13T16:57:12.351Z,2.50
2023-05-13T16:58:12.407Z,2.70
2023-05-13T16:59:12.328Z,2.60
2023-05-13T17:00:12.349Z,2.80
2023-05-13T17:01:12.322Z,2.40
2023-05-13T17:02:12.347Z,2.50
2023-05-13T17:03:12.409Z,2.60
2023-05-13T17:04:12.293Z,2.30
2023-05-13T17:05:12.235Z,2.50
2023-05-13T17:06:12.236Z,2.40
2023-05-13T17:07:12.268Z,3.00
2023-05-13T17:08:12.235Z,2.70
2023-05-13T17:09:12.204Z,2.40
2023-05-13T17:10:12.224Z,2.40
2023-05-13T17:11:12.167Z,2.30
2023-05-13T17:12:12.166Z,2.50
2023-05-13T17:13:12.189Z,2.40
2023-05-13T17:14:12.160Z,2.40
2023-05-13T17:15:12.116Z,2.40
2023-05-13T17:16:12.139Z,2.40
2023-05-13T17:17:12.229Z,2.40
2023-05-13T17:18:12.112Z,2.50
2023-05-13T17:19:12.108Z,2.60
2023-05-13T17:20:12.089Z,2.50
2023-05-13T17:21:12.069Z,2.40
2023-05-13T17:22:12.113Z,2.60
2023-05-13T17:23:12.049Z,2.40
2023-05-13T17:24:12.025Z,2.50
2023-05-13T17:25:12.020Z,2.20
2023-05-13T17:26:12.022Z,2.30
2023-05-13T17:27:11.969Z,2.40
2023-05-13T17:28:12.014Z,2.40
2023-05-13T17:29:11.974Z,2.30
2023-05-13T17:30:11.980Z,2.40
2023-05-13T17:31:11.969Z,2.50
2023-05-13T17:32:11.958Z,2.40
2023-05-13T17:33:11.936Z,2.50
2023-05-13T17:34:12.038Z,2.70
2023-05-13T17:35:11.912Z,2.40
2023-05-13T17:36:11.923Z,2.50
2023-05-13T17:37:11.888Z,2.60
2023-05-13T17:38:12.022Z,2.70
2023-05-13T17:39:11.872Z,2.80
2023-05-13T17:40:11.860Z,2.60
2023-05-13T17:41:11.814Z,2.80
2023-05-13T17:42:11.871Z,2.70
2023-05-13T17:43:11.817Z,2.50
2023-05-13T17:44:11.817Z,2.80
2023-05-13T17:45:11.885Z,2.60
2023-05-13T17:46:11.794Z,2.50
2023-05-13T17:47:11.776Z,2.60
2023-05-13T17:48:11.897Z,2.70
2023-05-13T17:49:11.795Z,2.50
2023-05-13T17:50:11.755Z,2.50
2023-05-13T17:51:11.773Z,2.60
2023-05-13T17:52:11.732Z,2.60
2023-05-13T17:53:11.681Z,2.60
2023-05-13T17:54:18.696Z,2.90
2023-05-13T17:55:11.653Z,2.80
2023-05-13T17:56:13.339Z,2.50
2023-05-13T17:57:11.659Z,2.50
2023-05-13T17:58:11.674Z,2.50
2023-05-13T17:59:11.649Z,2.70
2023-05-13T18:00:11.607Z,2.50
2023-05-13T18:01:11.629Z,3.10
2023-05-13T18:02:11.616Z,2.60
2023-05-13T18:03:11.620Z,2.70
2023-05-13T18:04:11.592Z,2.70
2023-05-13T18:05:11.544Z,2.50
2023-05-13T18:06:11.602Z,2.70
2023-05-13T18:07:11.517Z,2.60
2023-05-13T18:08:11.530Z,2.70
2023-05-13T18:09:11.529Z,2.80
2023-05-13T18:10:11.517Z,2.80
2023-05-13T18:11:11.466Z,2.60
2023-05-13T18:12:11.472Z,2.90
2023-05-13T18:13:11.471Z,2.80
2023-05-13T18:14:11.469Z,3.00
2023-05-13T18:15:11.446Z,2.90
2023-05-13T18:16:11.479Z,3.00
2023-05-13T18:17:11.402Z,3.00
2023-05-13T18:18:11.489Z,3.00
2023-05-13T18:19:11.583Z,2.90
2023-05-13T18:20:11.384Z,3.00
2023-05-13T18:21:11.354Z,3.10
2023-05-13T18:22:11.358Z,3.00
2023-05-13T18:23:11.331Z,3.10
2023-05-13T18:24:11.375Z,3.00
2023-05-13T18:25:11.400Z,3.30
2023-05-13T18:26:11.363Z,3.10
2023-05-13T18:27:11.321Z,3.20
2023-05-13T18:28:11.324Z,3.00
2023-05-13T18:29:11.297Z,3.20
2023-05-13T18:30:11.268Z,3.10
2023-05-13T18:31:11.254Z,3.10
2023-05-13T18:32:11.291Z,3.30
2023-05-13T18:33:11.259Z,3.30
2023-05-13T18:34:11.242Z,3.20
2023-05-13T18:35:11.199Z,3.00
2023-05-13T18:36:11.225Z,3.50
2023-05-13T18:37:11.215Z,3.10
2023-05-13T18:38:11.180Z,3.20
2023-05-13T18:39:11.177Z,3.20
2023-05-13T18:40:11.191Z,3.20
2023-05-13T18:41:11.133Z,3.10
2023-05-13T18:42:11.171Z,3.10
2023-05-13T18:43:11.142Z,3.30
2023-05-13T18:44:11.131Z,3.20
2023-05-13T18:45:11.076Z,3.10
2023-05-13T18:46:11.977Z,3.40
2023-05-13T18:47:11.125Z,3.80
2023-05-13T18:48:12.048Z,3.50
2023-05-13T18:49:11.117Z,3.60
2023-05-13T18:50:11.082Z,3.40
2023-05-13T18:51:11.029Z,3.30
2023-05-13T18:52:11.010Z,3.70
2023-05-13T18:53:10.990Z,3.30
2023-05-13T18:54:11.022Z,3.40
2023-05-13T18:55:11.067Z,3.40
2023-05-13T18:56:10.976Z,3.40
2023-05-13T18:57:10.970Z,3.60
2023-05-13T18:58:10.976Z,3.60
2023-05-13T18:59:10.949Z,3.30
2023-05-13T19:00:10.919Z,3.50
2023-05-13T19:01:10.981Z,3.70
2023-05-13T19:02:11.094Z,3.60
2023-05-13T19:03:11.267Z,3.90
2023-05-13T19:04:11.098Z,3.50
2023-05-13T19:05:10.905Z,3.90
2023-05-13T19:06:10.839Z,3.40
2023-05-13T19:07:10.871Z,3.70
2023-05-13T19:08:10.843Z,3.60
2023-05-13T19:09:10.822Z,3.60
2023-05-13T19:10:10.832Z,3.50
2023-05-13T19:11:10.795Z,3.50
2023-05-13T19:12:10.797Z,3.70
2023-05-13T19:13:10.773Z,4.10
2023-05-13T19:14:10.834Z,3.80
2023-05-13T19:15:10.821Z,3.60
2023-05-13T19:16:10.740Z,3.80
2023-05-13T19:17:10.918Z,3.90
2023-05-13T19:18:10.763Z,3.90
2023-05-13T19:19:10.941Z,4.10
2023-05-13T19:20:10.724Z,4.20
2023-05-13T19:21:10.734Z,4.40
2023-05-13T19:22:10.696Z,4.30
2023-05-13T19:23:10.695Z,4.40
2023-05-13T19:24:10.665Z,4.40
2023-05-13T19:25:10.677Z,4.70
2023-05-13T19:26:10.637Z,4.70
2023-05-13T19:27:10.644Z,4.40
2023-05-13T19:28:10.609Z,4.50
2023-05-13T19:29:11.317Z,4.70
2023-05-13T19:30:10.593Z,4.50
2023-05-13T19:31:10.611Z,4.80
2023-05-13T19:32:10.561Z,4.70
2023-05-13T19:33:10.596Z,4.90
2023-05-13T19:34:10.540Z,5.00
2023-05-13T19:35:10.536Z,5.20
2023-05-13T19:36:10.514Z,5.50
2023-05-13T19:37:10.522Z,6.10
2023-05-13T19:38:10.498Z,5.40
2023-05-13T19:39:10.513Z,5.80
2023-05-13T19:40:10.507Z,6.90
2023-05-13T19:41:11.264Z,7.40
2023-05-13T19:42:10.442Z,6.70
2023-05-13T19:43:10.426Z,7.10
2023-05-13T19:44:10.434Z,7.00
2023-05-13T19:45:10.494Z,8.20
2023-05-13T19:46:10.575Z,10.10
2023-05-13T19:47:10.377Z,6.80
2023-05-13T19:48:10.359Z,5.60
2023-05-13T19:49:10.357Z,6.60
2023-05-13T19:50:10.394Z,5.60
2023-05-13T19:51:10.345Z,5.90
2023-05-13T19:52:10.344Z,5.50
2023-05-13T19:53:10.327Z,5.70
2023-05-13T19:54:10.306Z,5.40
2023-05-13T19:55:10.308Z,5.40
2023-05-13T19:56:10.313Z,5.30
2023-05-13T19:57:10.251Z,5.40
2023-05-13T19:58:10.227Z,5.70
2023-05-13T19:59:10.257Z,5.50
2023-05-13T20:00:10.204Z,5.50
2023-05-13T20:01:10.230Z,5.90
2023-05-13T20:02:10.456Z,5.90
2023-05-13T20:03:10.412Z,6.10
2023-05-13T20:04:10.285Z,5.80
2023-05-13T20:05:10.161Z,5.30
2023-05-13T20:06:10.160Z,5.50
2023-05-13T20:07:10.172Z,5.50
2023-05-13T20:08:11.000Z,5.60
2023-05-13T20:09:10.183Z,5.70
2023-05-13T20:10:10.119Z,5.40
2023-05-13T20:11:10.160Z,5.70
2023-05-13T20:12:10.069Z,5.80
2023-05-13T20:13:10.067Z,6.40
2023-05-13T20:14:10.063Z,5.80
2023-05-13T20:15:10.078Z,6.20
2023-05-13T20:16:10.019Z,6.50
2023-05-13T20:17:10.955Z,5.90
2023-05-13T20:18:10.120Z,6.40
2023-05-13T20:19:10.294Z,7.50
2023-05-13T20:20:10.046Z,7.20
2023-05-13T20:21:09.988Z,7.10
2023-05-13T20:22:09.956Z,7.30
2023-05-13T20:23:13.160Z,7.40
2023-05-13T20:24:09.972Z,8.10
2023-05-13T20:25:09.977Z,7.80
2023-05-13T20:26:09.977Z,8.10
2023-05-13T20:27:09.914Z,7.60
2023-05-13T20:28:09.913Z,7.40
2023-05-13T20:29:09.890Z,7.80
2023-05-13T20:30:09.940Z,7.70
2023-05-13T20:31:09.891Z,7.60
2023-05-13T20:32:09.927Z,8.20
2023-05-13T20:33:09.919Z,7.40
2023-05-13T20:34:09.814Z,7.80
2023-05-13T20:35:09.859Z,7.20
2023-05-13T20:36:37.529Z,7.30
2023-05-13T20:37:09.819Z,7.50
2023-05-13T20:38:09.784Z,6.90
2023-05-13T20:39:09.799Z,6.10
2023-05-13T20:40:11.497Z,6.20
2023-05-13T20:41:09.780Z,5.80
2023-05-13T20:42:09.758Z,6.10
2023-05-13T20:43:09.745Z,6.60
2023-05-13T20:44:09.743Z,5.70
2023-05-13T20:45:09.727Z,6.20
2023-05-13T20:46:09.714Z,6.90
2023-05-13T20:47:09.700Z,6.40
2023-05-13T20:48:09.717Z,6.40
2023-05-13T20:49:09.674Z,5.70
2023-05-13T20:50:09.659Z,5.30
2023-05-13T20:51:09.670Z,5.20
2023-05-13T20:52:09.708Z,5.20
2023-05-13T20:53:09.630Z,5.30
2023-05-13T20:54:09.639Z,5.10
2023-05-13T20:55:09.577Z,4.90
2023-05-13T20:56:09.609Z,5.20
2023-05-13T20:57:09.593Z,4.70
2023-05-13T20:58:09.629Z,4.50
2023-05-13T20:59:09.565Z,4.90
2023-05-13T21:00:09.564Z,4.80
2023-05-13T21:01:09.585Z,4.70
2023-05-13T21:02:09.510Z,4.60
2023-05-13T21:03:09.576Z,4.80
2023-05-13T21:04:09.538Z,5.40
2023-05-13T21:05:09.568Z,5.00
2023-05-13T21:06:09.526Z,4.90
2023-05-13T21:07:09.462Z,5.10
2023-05-13T21:08:09.496Z,4.90
2023-05-13T21:09:09.439Z,4.90
2023-05-13T21:10:09.471Z,5.10
2023-05-13T21:11:09.449Z,5.30
2023-05-13T21:12:09.426Z,5.20
2023-05-13T21:13:10.386Z,5.00
2023-05-13T21:14:09.471Z,4.90
2023-05-13T21:15:09.380Z,4.70
2023-05-13T21:16:09.398Z,5.20
2023-05-13T21:17:09.353Z,4.80
2023-05-13T21:18:09.359Z,4.90
2023-05-13T21:19:09.409Z,4.90
2023-05-13T21:20:09.306Z,4.60
2023-05-13T21:21:10.132Z,4.50
2023-05-13T21:22:09.416Z,4.50
2023-05-13T21:23:09.284Z,4.50
2023-05-13T21:24:09.257Z,4.90
2023-05-13T21:25:09.264Z,4.70
2023-05-13T21:26:09.233Z,4.60
2023-05-13T21:27:09.220Z,4.90
2023-05-13T21:28:09.216Z,4.90
2023-05-13T21:29:09.189Z,4.60
2023-05-13T21:30:10.281Z,4.90
2023-05-13T21:31:09.221Z,4.40
2023-05-13T21:32:09.196Z,4.40
2023-05-13T21:33:09.194Z,4.60
2023-05-13T21:34:09.164Z,4.20
2023-05-13T21:35:09.155Z,4.30
2023-05-13T21:36:09.130Z,4.70
2023-05-13T21:37:09.159Z,4.30
2023-05-13T21:38:12.414Z,4.60
2023-05-13T21:39:09.938Z,4.60
2023-05-13T21:40:09.119Z,4.40
2023-05-13T21:41:09.081Z,4.40
2023-05-13T21:42:09.073Z,4.50
2023-05-13T21:43:09.046Z,4.40
2023-05-13T21:44:09.031Z,4.60
2023-05-13T21:45:09.027Z,4.80
2023-05-13T21:46:09.044Z,4.70
2023-05-13T21:47:09.004Z,4.70
2023-05-13T21:48:09.110Z,4.60
2023-05-13T21:49:10.083Z,4.70
2023-05-13T21:50:08.982Z,4.60
2023-05-13T21:51:09.804Z,4.50
2023-05-13T21:52:08.976Z,4.70
2023-05-13T21:53:08.922Z,4.80
2023-05-13T21:54:08.919Z,4.90
2023-05-13T21:55:08.898Z,4.80
2023-05-13T21:56:08.875Z,4.70
2023-05-13T21:57:08.868Z,5.00
2023-05-13T21:58:09.083Z,5.20
2023-05-13T21:59:08.838Z,5.00
2023-05-13T22:00:08.847Z,5.10
2023-05-13T22:01:08.874Z,5.20
2023-05-13T22:02:08.922Z,5.20
2023-05-13T22:03:08.912Z,5.10
2023-05-13T22:04:08.828Z,5.10
2023-05-13T22:05:08.783Z,5.50
2023-05-13T22:06:08.774Z,5.70
2023-05-13T22:07:08.803Z,5.60
2023-05-13T22:08:08.798Z,5.10
2023-05-13T22:09:08.737Z,5.20
2023-05-13T22:10:08.787Z,4.70
2023-05-13T22:11:08.694Z,4.70
2023-05-13T22:12:08.706Z,5.20
2023-05-13T22:13:08.685Z,5.10
2023-05-13T22:14:08.699Z,5.40
2023-05-13T22:15:08.647Z,5.20
2023-05-13T22:16:08.804Z,5.10
2023-05-13T22:17:10.116Z,5.20
2023-05-13T22:18:08.738Z,5.30
2023-05-13T22:19:08.764Z,5.10
2023-05-13T22:20:08.625Z,4.90
2023-05-13T22:21:08.612Z,5.00
2023-05-13T22:22:08.599Z,5.20
2023-05-13T22:23:08.591Z,4.80
2023-05-13T22:24:08.563Z,5.00
2023-05-13T22:25:08.580Z,5.00
2023-05-13T22:26:08.601Z,5.00
2023-05-13T22:27:08.507Z,5.30
2023-05-13T22:28:08.574Z,4.70
2023-05-13T22:29:15.196Z,4.80
2023-05-13T22:30:08.479Z,5.00
2023-05-13T22:31:08.466Z,5.00
2023-05-13T22:32:08.539Z,4.70
2023-05-13T22:33:08.488Z,5.40
2023-05-13T22:34:08.469Z,4.80
2023-05-13T22:35:08.452Z,5.30
2023-05-13T22:36:08.414Z,5.40
2023-05-13T22:37:08.409Z,5.10
2023-05-13T22:38:08.404Z,5.50
2023-05-13T22:39:08.371Z,5.20
2023-05-13T22:40:08.396Z,5.30
2023-05-13T22:41:08.386Z,5.50
2023-05-13T22:42:08.377Z,5.60
2023-05-13T22:43:08.356Z,5.40
2023-05-13T22:44:08.342Z,5.80
2023-05-13T22:45:08.336Z,5.90
2023-05-13T22:46:08.337Z,6.00
2023-05-13T22:47:08.276Z,6.00
2023-05-13T22:48:08.368Z,5.90
2023-05-13T22:49:08.255Z,5.90
2023-05-13T22:50:08.259Z,5.80
2023-05-13T22:51:08.240Z,5.80
2023-05-13T22:52:08.228Z,6.00
2023-05-13T22:53:08.202Z,5.50
2023-05-13T22:54:08.255Z,6.10
2023-05-13T22:55:08.206Z,6.00
2023-05-13T22:56:08.219Z,6.60
2023-05-13T22:57:08.221Z,6.40
2023-05-13T22:58:08.185Z,5.90
2023-05-13T22:59:08.157Z,5.80
2023-05-13T23:00:08.163Z,5.80
2023-05-13T23:01:08.106Z,6.00
2023-05-13T23:02:08.289Z,5.70
2023-05-13T23:03:08.142Z,6.10
2023-05-13T23:04:08.179Z,5.90
2023-05-13T23:05:08.066Z,6.00
2023-05-13T23:06:08.070Z,5.90
2023-05-13T23:07:08.064Z,6.60
2023-05-13T23:08:08.070Z,6.10
2023-05-13T23:09:08.041Z,5.90
2023-05-13T23:10:08.047Z,6.10
2023-05-13T23:11:08.030Z,5.80
2023-05-13T23:12:07.992Z,6.00
2023-05-13T23:13:07.956Z,5.60
2023-05-13T23:14:07.961Z,6.00